createdAt,value
2019-01-15T00:00:13.101Z,98827.84
2019-01-15T00:01:14.252Z,98822.49
2019-01-15T00:02:15.475Z,98833.17
2019-01-15T00:03:16.686Z,98833.70
2019-01-15T00:04:17.910Z,98838.52
2019-01-15T00:05:19.016Z,98839.85
2019-01-15T00:06:20.165Z,98843.86
2019-01-15T00:07:21.276Z,98845.20
2019-01-15T00:08:22.495Z,98848.71
2019-01-15T00:09:23.608Z,98847.55
2019-01-15T00:10:24.828Z,98845.72
2019-01-15T00:11:26.083Z,98842.84
2019-01-15T00:12:27.196Z,98842.03
2019-01-15T00:13:28.303Z,98843.54
2019-01-15T00:14:29.416Z,98843.86
2019-01-15T00:15:30.528Z,98843.37
2019-01-15T00:16:31.688Z,98859.88
2019-01-15T00:17:32.805Z,98855.56
2019-01-15T00:18:34.011Z,98860.58
2019-01-15T00:19:35.122Z,98859.24
2019-01-15T00:20:36.241Z,98861.59
2019-01-15T00:21:37.388Z,98861.59
2019-01-15T00:22:38.501Z,98869.28
2019-01-15T00:23:39.726Z,98873.78
2019-01-15T00:24:40.836Z,98863.95
2019-01-15T00:25:41.948Z,98863.10
2019-01-15T00:26:43.206Z,98878.31
2019-01-15T00:27:44.316Z,98873.30
2019-01-15T00:28:45.424Z,98884.47
2019-01-15T00:29:46.537Z,98875.81
2019-01-15T00:30:47.654Z,98879.02
2019-01-15T00:31:48.800Z,98865.30
2019-01-15T00:32:50.177Z,98882.17
2019-01-15T00:33:51.294Z,98885.37
2019-01-15T00:34:52.413Z,98896.05
2019-01-15T00:35:53.525Z,98884.52
2019-01-15T00:36:54.898Z,98893.05
2019-01-15T00:37:56.009Z,98891.72
2019-01-15T00:38:57.122Z,98895.41
2019-01-15T00:39:58.337Z,98901.23
2019-01-15T00:40:59.466Z,98894.07
2019-01-15T00:42:00.646Z,98906.58
2019-01-15T00:43:01.749Z,98904.44
2019-01-15T00:44:03.070Z,98904.44
2019-01-15T00:45:06.182Z,98902.25
2019-01-15T00:46:07.500Z,98911.11
2019-01-15T00:47:08.789Z,98915.61
2019-01-15T00:48:09.896Z,98920.30
2019-01-15T00:49:11.006Z,98917.31
2019-01-15T00:50:14.218Z,98916.82
2019-01-15T00:51:15.329Z,98916.82
2019-01-15T00:52:16.453Z,98916.18
2019-01-15T00:53:17.566Z,98919.66
2019-01-15T00:54:18.683Z,98920.67
2019-01-15T00:55:19.793Z,98934.03
2019-01-15T00:56:21.045Z,98925.20
2019-01-15T00:57:22.195Z,98932.38
2019-01-15T00:58:23.328Z,98929.91
2019-01-15T00:59:24.446Z,98928.57
2019-01-15T01:00:25.762Z,98927.92
2019-01-15T01:01:26.872Z,98931.41
2019-01-15T01:02:28.020Z,98930.08
2019-01-15T01:03:29.240Z,98942.61
2019-01-15T01:04:30.518Z,98940.95
2019-01-15T01:05:31.628Z,98943.63
2019-01-15T01:06:32.745Z,98951.63
2019-01-15T01:07:34.002Z,98945.94
2019-01-15T01:08:35.212Z,98930.94
2019-01-15T01:09:36.424Z,98953.62
2019-01-15T01:10:37.539Z,98953.62
2019-01-15T01:11:38.654Z,98954.97
2019-01-15T01:12:39.905Z,98948.29
2019-01-15T01:13:41.213Z,98950.64
2019-01-15T01:14:42.325Z,98947.97
2019-01-15T01:15:43.439Z,98959.66
2019-01-15T01:16:44.660Z,98964.67
2019-01-15T01:17:45.814Z,98961.19
2019-01-15T01:18:46.928Z,98963.86
2019-01-15T01:19:48.040Z,98959.86
2019-01-15T01:20:49.163Z,98964.35
2019-01-15T01:21:50.272Z,98977.70
2019-01-15T01:22:51.518Z,98979.56
2019-01-15T01:23:52.635Z,98975.72
2019-01-15T01:24:53.751Z,98971.39
2019-01-15T01:25:54.869Z,98971.39
2019-01-15T01:26:55.980Z,98975.40
2019-01-15T01:27:57.127Z,98980.42
2019-01-15T01:28:58.240Z,98989.76
2019-01-15T01:29:59.355Z,98982.77
2019-01-15T01:31:00.528Z,98990.77
2019-01-15T01:32:01.739Z,98992.63
2019-01-15T01:33:03.184Z,98992.31
2019-01-15T01:34:04.288Z,98994.45
2019-01-15T01:35:06.298Z,98996.80
2019-01-15T01:36:07.517Z,99000.31
2019-01-15T01:37:08.733Z,99002.66
2019-01-15T01:38:09.991Z,99011.48
2019-01-15T01:39:11.100Z,99008.48
2019-01-15T01:40:14.421Z,99006.66
2019-01-15T01:41:15.545Z,99009.01
2019-01-15T01:42:16.676Z,99013.02
2019-01-15T01:43:17.932Z,99013.02
2019-01-15T01:44:19.144Z,99011.36
2019-01-15T01:45:20.251Z,99018.03
2019-01-15T01:46:21.364Z,99015.85
2019-01-15T01:47:22.473Z,99021.19
2019-01-15T01:48:23.624Z,99019.69
2019-01-15T01:49:24.740Z,99021.83
2019-01-15T01:50:27.473Z,99027.38
2019-01-15T01:51:28.962Z,99026.36
2019-01-15T01:52:30.073Z,99026.36
2019-01-15T01:53:31.219Z,99022.84
2019-01-15T01:54:32.342Z,99024.42
2019-01-15T01:55:33.555Z,99021.52
2019-01-15T01:56:34.656Z,99018.52
2019-01-15T01:57:35.770Z,99022.84
2019-01-15T01:58:36.919Z,99030.53
2019-01-15T01:59:38.026Z,99029.20
2019-01-15T02:00:39.337Z,99023.86
2019-01-15T02:01:40.452Z,99031.55
2019-01-15T02:02:41.568Z,99039.06
2019-01-15T02:03:42.727Z,99034.73
2019-01-15T02:04:43.848Z,99034.73
2019-01-15T02:05:45.065Z,99045.41
2019-01-15T02:06:48.717Z,99042.22
2019-01-15T02:07:49.705Z,99048.89
2019-01-15T02:08:50.860Z,99050.22
2019-01-15T02:09:52.084Z,99054.23
2019-01-15T02:10:53.196Z,99047.55
2019-01-15T02:11:54.304Z,99048.41
2019-01-15T02:12:55.420Z,99048.89
2019-01-15T02:13:56.597Z,99055.23
2019-01-15T02:14:57.714Z,99044.56
2019-01-15T02:15:58.929Z,99054.43
2019-01-15T02:17:00.092Z,99063.57
2019-01-15T02:18:01.203Z,99053.09
2019-01-15T02:19:02.592Z,99058.92
2019-01-15T02:20:06.901Z,99057.59
2019-01-15T02:21:08.013Z,99054.91
2019-01-15T02:22:09.229Z,99061.91
2019-01-15T02:23:10.347Z,99054.59
2019-01-15T02:24:11.597Z,99050.09
2019-01-15T02:25:13.606Z,99067.12
2019-01-15T02:26:14.718Z,99064.94
2019-01-15T02:27:15.921Z,99061.27
2019-01-15T02:28:17.033Z,99066.28
2019-01-15T02:29:18.187Z,99065.95
2019-01-15T02:30:22.211Z,99068.95
2019-01-15T02:31:23.433Z,99019.98
2019-01-15T02:32:24.652Z,99059.61
2019-01-15T02:33:25.772Z,99055.60
2019-01-15T02:34:26.924Z,99061.27
2019-01-15T02:35:28.136Z,99060.45
2019-01-15T02:36:29.258Z,99075.62
2019-01-15T02:37:30.376Z,99070.28
2019-01-15T02:38:31.595Z,99077.97
2019-01-15T02:39:32.860Z,99029.63
2019-01-15T02:40:34.073Z,99064.94
2019-01-15T02:41:35.203Z,99073.47
2019-01-15T02:42:36.647Z,99072.95
2019-01-15T02:43:37.856Z,99064.94
2019-01-15T02:44:39.114Z,99071.13
2019-01-15T02:45:40.234Z,99071.94
2019-01-15T02:46:41.443Z,99067.94
2019-01-15T02:47:42.563Z,99071.94
2019-01-15T02:48:43.673Z,99071.45
2019-01-15T02:49:44.834Z,99082.12
2019-01-15T02:50:45.947Z,99081.80
2019-01-15T02:51:47.064Z,99085.80
2019-01-15T02:52:48.380Z,99080.47
2019-01-15T02:53:49.498Z,99076.95
2019-01-15T02:54:50.662Z,99090.30
2019-01-15T02:55:51.778Z,99089.48
2019-01-15T02:56:52.993Z,99087.63
2019-01-15T02:57:54.110Z,99084.64
2019-01-15T02:58:55.230Z,99080.63
2019-01-15T02:59:56.383Z,99089.48
2019-01-15T03:00:57.493Z,99082.45
2019-01-15T03:01:58.605Z,99088.64
2019-01-15T03:02:59.713Z,99088.64
2019-01-15T03:04:00.830Z,99089.97
2019-01-15T03:05:04.176Z,99100.16
2019-01-15T03:06:05.396Z,99093.98
2019-01-15T03:07:06.608Z,99091.63
2019-01-15T03:08:07.831Z,99095.31
2019-01-15T03:09:09.505Z,99090.30
2019-01-15T03:10:15.801Z,99090.82
2019-01-15T03:11:17.023Z,99092.97
2019-01-15T03:12:18.137Z,99095.31
2019-01-15T03:13:19.253Z,99093.98
2019-01-15T03:14:20.474Z,99098.83
2019-01-15T03:15:21.724Z,99093.98
2019-01-15T03:16:22.837Z,99097.98
2019-01-15T03:17:24.069Z,99100.65
2019-01-15T03:18:25.183Z,99095.64
2019-01-15T03:19:26.297Z,99102.83
2019-01-15T03:20:27.444Z,99103.31
2019-01-15T03:21:28.557Z,99099.31
2019-01-15T03:22:29.669Z,99094.30
2019-01-15T03:23:30.783Z,99104.98
2019-01-15T03:24:31.898Z,99104.66
2019-01-15T03:25:33.353Z,99100.98
2019-01-15T03:26:34.470Z,99112.66
2019-01-15T03:27:35.577Z,99110.31
2019-01-15T03:28:36.802Z,99102.83
2019-01-15T03:29:37.936Z,99104.16
2019-01-15T03:30:39.063Z,99107.65
2019-01-15T03:31:40.176Z,99108.98
2019-01-15T03:32:41.297Z,99104.49
2019-01-15T03:33:42.413Z,99117.84
2019-01-15T03:34:43.524Z,99108.17
2019-01-15T03:35:44.644Z,99108.17
2019-01-15T03:36:45.754Z,99110.31
2019-01-15T03:37:46.964Z,99109.98
2019-01-15T03:38:48.206Z,99112.98
2019-01-15T03:39:49.556Z,99110.84
2019-01-15T03:40:50.817Z,99099.23
2019-01-15T03:41:51.942Z,99114.32
2019-01-15T03:42:53.273Z,99112.17
2019-01-15T03:43:54.789Z,99110.31
2019-01-15T03:44:55.900Z,99117.51
2019-01-15T03:46:04.002Z,99112.66
2019-01-15T03:47:00.065Z,99073.13
2019-01-15T03:48:01.177Z,99108.66
2019-01-15T03:49:02.288Z,99114.32
2019-01-15T03:50:06.104Z,99104.49
2019-01-15T03:51:07.249Z,99118.33
2019-01-15T03:52:08.356Z,99118.65
2019-01-15T03:53:09.474Z,99117.31
2019-01-15T03:54:10.581Z,99114.16
2019-01-15T03:55:13.591Z,99118.65
2019-01-15T03:56:14.745Z,99118.16
2019-01-15T03:57:15.860Z,99113.63
2019-01-15T03:58:17.072Z,99110.31
2019-01-15T03:59:18.180Z,99121.32
2019-01-15T04:00:22.335Z,99113.31
2019-01-15T04:01:23.480Z,99114.32
2019-01-15T04:02:24.691Z,99113.83
2019-01-15T04:03:25.801Z,99123.66
2019-01-15T04:04:26.916Z,99112.66
2019-01-15T04:05:28.129Z,99122.84
2019-01-15T04:06:29.281Z,99117.16
2019-01-15T04:07:30.693Z,99115.82
2019-01-15T04:08:31.799Z,99116.34
2019-01-15T04:09:33.313Z,99116.34
2019-01-15T04:10:34.431Z,99118.69
2019-01-15T04:11:35.584Z,99120.50
2019-01-15T04:12:36.690Z,99126.37
2019-01-15T04:13:37.799Z,99123.70
2019-01-15T04:14:38.907Z,99127.70
2019-01-15T04:15:40.125Z,99125.52
2019-01-15T04:16:41.276Z,99119.04
2019-01-15T04:17:42.435Z,99132.71
2019-01-15T04:18:43.545Z,99131.05
2019-01-15T04:19:44.662Z,99128.06
2019-01-15T04:20:45.770Z,99125.39
2019-01-15T04:21:46.915Z,99124.05
2019-01-15T04:22:48.125Z,99122.72
2019-01-15T04:23:49.243Z,99128.55
2019-01-15T04:24:50.361Z,99122.72
2019-01-15T04:25:51.578Z,99119.53
2019-01-15T04:26:52.820Z,99122.20
2019-01-15T04:27:53.942Z,99128.06
2019-01-15T04:28:55.052Z,99121.39
2019-01-15T04:29:56.164Z,99125.88
2019-01-15T04:30:57.270Z,99120.05
2019-01-15T04:31:58.425Z,99120.05
2019-01-15T04:32:59.639Z,99117.87
2019-01-15T04:34:00.758Z,99117.06
2019-01-15T04:35:02.670Z,99120.05
2019-01-15T04:36:03.883Z,99123.73
2019-01-15T04:37:05.044Z,99124.05
2019-01-15T04:38:06.350Z,99123.21
2019-01-15T04:39:07.856Z,99129.06
2019-01-15T04:40:14.981Z,99127.21
2019-01-15T04:41:16.080Z,99128.22
2019-01-15T04:42:17.248Z,99121.06
2019-01-15T04:43:19.847Z,99119.73
2019-01-15T04:44:21.388Z,99128.22
2019-01-15T04:45:22.496Z,99126.89
2019-01-15T04:46:23.611Z,99130.08
2019-01-15T04:47:24.761Z,99123.73
2019-01-15T04:48:25.880Z,99121.75
2019-01-15T04:49:27.002Z,99131.41
2019-01-15T04:50:28.112Z,99127.41
2019-01-15T04:51:29.225Z,99127.89
2019-01-15T04:52:30.730Z,99123.41
2019-01-15T04:53:31.844Z,99130.41
2019-01-15T04:54:33.054Z,99126.89
2019-01-15T04:55:34.284Z,99129.55
2019-01-15T04:56:35.653Z,99132.22
2019-01-15T04:57:36.749Z,99133.75
2019-01-15T04:58:37.971Z,99129.23
2019-01-15T04:59:39.185Z,99131.41
2019-01-15T05:00:40.298Z,99130.08
2019-01-15T05:01:41.410Z,99134.89
2019-01-15T05:02:42.672Z,99138.41
2019-01-15T05:03:43.789Z,99132.22
2019-01-15T05:04:44.903Z,99138.08
2019-01-15T05:05:46.012Z,99136.55
2019-01-15T05:06:47.133Z,99141.73
2019-01-15T05:07:48.386Z,99138.21
2019-01-15T05:08:49.502Z,99139.06
2019-01-15T05:09:50.619Z,99147.06
2019-01-15T05:10:51.737Z,99137.20
2019-01-15T05:11:52.857Z,99148.20
2019-01-15T05:12:54.273Z,99140.72
2019-01-15T05:13:55.387Z,99146.38
2019-01-15T05:14:56.505Z,99149.05
2019-01-15T05:15:57.618Z,99145.38
2019-01-15T05:16:58.731Z,99145.38
2019-01-15T05:17:59.920Z,99151.03
2019-01-15T05:19:01.028Z,99149.05
2019-01-15T05:20:05.146Z,99160.05
2019-01-15T05:21:06.265Z,99172.06
2019-01-15T05:22:07.374Z,99162.72
2019-01-15T05:23:08.530Z,99164.05
2019-01-15T05:24:09.640Z,99163.20
2019-01-15T05:25:13.551Z,99162.39
2019-01-15T05:26:14.671Z,99164.54
2019-01-15T05:27:15.792Z,99170.72
2019-01-15T05:28:17.025Z,99178.73
2019-01-15T05:29:18.143Z,99179.22
2019-01-15T05:30:21.249Z,99182.41
2019-01-15T05:31:22.364Z,99175.22
2019-01-15T05:32:23.478Z,99184.88
2019-01-15T05:33:24.601Z,99183.55
2019-01-15T05:34:25.714Z,99183.06
2019-01-15T05:35:26.820Z,99181.73
2019-01-15T05:36:28.051Z,99180.39
2019-01-15T05:37:29.162Z,99183.06
2019-01-15T05:38:30.312Z,99173.72
2019-01-15T05:39:31.422Z,99169.72
2019-01-15T05:40:33.141Z,99167.05
2019-01-15T05:41:34.362Z,99169.72
2019-01-15T05:42:35.493Z,99163.86
2019-01-15T05:43:36.749Z,99160.22
2019-01-15T05:44:37.970Z,99158.52
2019-01-15T05:45:39.393Z,99175.05
2019-01-15T05:46:40.502Z,99161.19
2019-01-15T05:47:41.812Z,99161.55
2019-01-15T05:48:43.046Z,99162.52
2019-01-15T05:49:44.153Z,99172.39
2019-01-15T05:50:47.166Z,99165.39
2019-01-15T05:51:48.380Z,99180.39
2019-01-15T05:52:49.493Z,99179.74
2019-01-15T05:53:50.743Z,99170.89
2019-01-15T05:54:51.855Z,99181.76
2019-01-15T05:55:52.973Z,99182.44
2019-01-15T05:56:54.085Z,99179.45
2019-01-15T05:57:55.197Z,99173.45
2019-01-15T05:58:56.459Z,99183.28
2019-01-15T05:59:57.576Z,99183.15
2019-01-15T06:00:58.783Z,99178.17
2019-01-15T06:01:59.895Z,99177.00
2019-01-15T06:03:01.016Z,99182.85
2019-01-15T06:04:02.360Z,99171.20
2019-01-15T06:05:06.473Z,99195.21
2019-01-15T06:06:07.585Z,99175.36
2019-01-15T06:07:08.688Z,99184.70
2019-01-15T06:08:09.800Z,99182.52
2019-01-15T06:09:10.950Z,99177.52
2019-01-15T06:10:13.662Z,99184.70
2019-01-15T06:11:14.775Z,99183.20
2019-01-15T06:12:15.887Z,99181.52
2019-01-15T06:13:17.016Z,99183.99
2019-01-15T06:14:18.175Z,99172.18
2019-01-15T06:15:19.610Z,99173.94
2019-01-15T06:16:20.711Z,99178.77
2019-01-15T06:17:21.920Z,99181.40
2019-01-15T06:18:23.045Z,99183.03
2019-01-15T06:19:24.299Z,99176.84
2019-01-15T06:20:25.412Z,99180.63
2019-01-15T06:21:26.533Z,99185.25
2019-01-15T06:22:27.646Z,99180.23
2019-01-15T06:23:28.751Z,99179.31
2019-01-15T06:24:29.876Z,99173.45
2019-01-15T06:25:30.989Z,99179.20
2019-01-15T06:26:32.098Z,99177.66
2019-01-15T06:27:33.212Z,99178.30
2019-01-15T06:28:34.731Z,99142.22
2019-01-15T06:29:35.881Z,99179.55
2019-01-15T06:30:36.993Z,99180.48
2019-01-15T06:31:38.100Z,99178.41
2019-01-15T06:32:39.311Z,99176.34
2019-01-15T06:33:40.427Z,99183.63
2019-01-15T06:34:41.701Z,99187.22
2019-01-15T06:35:42.912Z,99184.13
2019-01-15T06:36:44.035Z,99179.09
2019-01-15T06:37:45.240Z,99189.53
2019-01-15T06:38:46.477Z,99187.97
2019-01-15T06:39:47.717Z,99184.73
2019-01-15T06:40:48.833Z,99188.19
2019-01-15T06:41:49.948Z,99195.15
2019-01-15T06:42:51.066Z,99192.42
2019-01-15T06:43:52.192Z,99196.38
2019-01-15T06:44:53.322Z,99197.34
2019-01-15T06:45:54.524Z,99188.98
2019-01-15T06:46:55.643Z,99189.97
2019-01-15T06:47:56.882Z,99187.73
2019-01-15T06:48:57.985Z,99186.55
2019-01-15T06:49:59.161Z,99186.66
2019-01-15T06:51:00.281Z,99186.60
2019-01-15T06:52:01.394Z,99188.09
2019-01-15T06:53:03.013Z,99194.41
2019-01-15T06:54:04.117Z,99183.32
2019-01-15T06:55:11.345Z,99189.62
2019-01-15T06:56:12.563Z,99178.22
2019-01-15T06:57:13.676Z,99178.37
2019-01-15T06:58:14.790Z,99177.98
2019-01-15T06:59:15.911Z,99183.98
2019-01-15T07:00:28.214Z,99182.44
2019-01-15T07:01:29.426Z,99184.41
2019-01-15T07:02:30.542Z,99185.90
2019-01-15T07:03:31.650Z,99179.03
2019-01-15T07:04:32.768Z,99185.02
2019-01-15T07:05:33.912Z,99178.13
2019-01-15T07:06:35.028Z,99186.80
2019-01-15T07:07:36.141Z,99189.79
2019-01-15T07:08:37.341Z,99193.42
2019-01-15T07:09:38.452Z,99200.64
2019-01-15T07:10:39.612Z,99202.63
2019-01-15T07:11:40.729Z,99205.63
2019-01-15T07:12:41.840Z,99204.28
2019-01-15T07:13:42.952Z,99202.24
2019-01-15T07:14:44.065Z,99204.22
2019-01-15T07:15:45.188Z,99204.22
2019-01-15T07:16:46.507Z,99204.53
2019-01-15T07:17:48.629Z,99205.17
2019-01-15T07:18:49.849Z,99203.84
2019-01-15T07:19:50.965Z,99206.30
2019-01-15T07:20:52.217Z,99199.96
2019-01-15T07:21:53.433Z,99207.47
2019-01-15T07:22:54.744Z,99204.62
2019-01-15T07:23:55.956Z,99205.42
2019-01-15T07:24:57.184Z,99207.30
2019-01-15T07:25:58.445Z,99208.11
2019-01-15T07:26:59.656Z,99204.41
2019-01-15T07:28:00.768Z,99207.09
2019-01-15T07:29:01.987Z,99207.61
2019-01-15T07:30:09.789Z,99202.26
2019-01-15T07:31:10.909Z,99211.42
2019-01-15T07:32:12.117Z,99210.93
2019-01-15T07:33:13.324Z,99214.10
2019-01-15T07:34:14.534Z,99219.78
2019-01-15T07:35:15.648Z,99210.41
2019-01-15T07:36:16.792Z,99216.08
2019-01-15T07:37:17.906Z,99216.92
2019-01-15T07:38:19.025Z,99217.73
2019-01-15T07:39:20.137Z,99221.44
2019-01-15T07:40:21.359Z,99221.96
2019-01-15T07:41:22.618Z,99218.75
2019-01-15T07:42:23.728Z,99218.75
2019-01-15T07:43:24.955Z,99217.42
2019-01-15T07:44:26.077Z,99224.75
2019-01-15T07:45:27.189Z,99219.08
2019-01-15T07:46:28.336Z,99221.75
2019-01-15T07:47:29.455Z,99218.05
2019-01-15T07:48:30.729Z,99223.09
2019-01-15T07:49:31.844Z,99219.39
2019-01-15T07:50:32.953Z,99218.05
2019-01-15T07:51:34.111Z,99214.56
2019-01-15T07:52:35.439Z,99214.36
2019-01-15T07:53:36.641Z,99212.77
2019-01-15T07:54:37.758Z,99213.02
2019-01-15T07:55:38.872Z,99217.88
2019-01-15T07:56:40.126Z,99210.34
2019-01-15T07:57:41.240Z,99207.98
2019-01-15T07:58:42.353Z,99212.52
2019-01-15T07:59:43.568Z,99212.84
2019-01-15T08:00:44.681Z,99206.95
2019-01-15T08:01:46.132Z,99205.62
2019-01-15T08:02:47.948Z,99196.24
2019-01-15T08:03:49.163Z,99211.30
2019-01-15T08:04:50.279Z,99199.56
2019-01-15T08:05:51.493Z,99208.93
2019-01-15T08:06:52.746Z,99207.59
2019-01-15T08:07:53.857Z,99219.97
2019-01-15T08:08:54.969Z,99214.61
2019-01-15T08:09:56.081Z,99226.17
2019-01-15T08:10:57.349Z,99225.15
2019-01-15T08:11:58.459Z,99224.63
2019-01-15T08:12:59.573Z,99224.13
2019-01-15T08:14:00.788Z,99234.00
2019-01-15T08:15:03.845Z,99219.27
2019-01-15T08:16:05.060Z,99224.94
2019-01-15T08:17:06.208Z,99209.89
2019-01-15T08:18:07.332Z,99215.77
2019-01-15T08:19:08.791Z,99212.56
2019-01-15T08:20:12.904Z,99210.41
2019-01-15T08:21:14.023Z,99204.03
2019-01-15T08:22:15.285Z,99208.87
2019-01-15T08:23:16.507Z,99203.51
2019-01-15T08:24:17.620Z,99208.87
2019-01-15T08:25:18.833Z,99211.55
2019-01-15T08:26:19.944Z,99214.22
2019-01-15T08:27:21.105Z,99216.91
2019-01-15T08:28:22.231Z,99211.55
2019-01-15T08:29:23.451Z,99220.92
2019-01-15T08:30:33.658Z,99211.55
2019-01-15T08:31:34.764Z,99220.92
2019-01-15T08:32:36.024Z,99214.22
2019-01-15T08:33:37.140Z,99221.77
2019-01-15T08:34:38.355Z,99221.23
2019-01-15T08:35:39.467Z,99211.05
2019-01-15T08:36:40.582Z,99218.56
2019-01-15T08:37:41.835Z,99222.27
2019-01-15T08:38:43.058Z,99223.92
2019-01-15T08:39:44.170Z,99213.20
2019-01-15T08:40:45.287Z,99219.91
2019-01-15T08:41:46.395Z,99207.53
2019-01-15T08:42:47.546Z,99215.88
2019-01-15T08:43:48.778Z,99213.73
2019-01-15T08:44:50.108Z,99207.10
2019-01-15T08:45:51.432Z,99207.84
2019-01-15T08:46:54.340Z,99209.50
2019-01-15T08:48:00.149Z,99209.50
2019-01-15T08:49:01.266Z,99206.02
2019-01-15T08:50:06.044Z,99206.33
2019-01-15T08:51:07.964Z,99164.05
2019-01-15T08:52:09.077Z,99204.50
2019-01-15T08:53:11.230Z,99202.80
2019-01-15T08:54:12.649Z,99202.80
2019-01-15T08:55:13.763Z,99206.33
2019-01-15T08:56:15.081Z,99196.70
2019-01-15T08:57:16.194Z,99204.50
2019-01-15T08:58:17.384Z,99208.52
2019-01-15T08:59:18.500Z,99207.17
2019-01-15T09:00:19.615Z,99207.35
2019-01-15T09:01:20.725Z,99203.02
2019-01-15T09:02:21.843Z,99198.16
2019-01-15T09:03:23.001Z,99200.02
2019-01-15T09:04:24.210Z,99207.03
2019-01-15T09:05:25.428Z,99201.85
2019-01-15T09:06:26.564Z,99205.88
2019-01-15T09:07:27.684Z,99202.38
2019-01-15T09:08:28.809Z,99205.88
2019-01-15T09:09:29.920Z,99204.53
2019-01-15T09:10:31.031Z,99214.44
2019-01-15T09:11:32.256Z,99207.42
2019-01-15T09:12:33.469Z,99204.21
2019-01-15T09:13:34.767Z,99206.39
2019-01-15T09:14:35.880Z,99202.88
2019-01-15T09:15:36.987Z,99206.58
2019-01-15T09:16:38.136Z,99201.74
2019-01-15T09:17:39.502Z,99211.93
2019-01-15T09:18:40.658Z,99204.91
2019-01-15T09:19:41.796Z,99199.06
2019-01-15T09:20:42.912Z,99196.88
2019-01-15T09:21:44.027Z,99200.89
2019-01-15T09:22:45.440Z,99206.25
2019-01-15T09:23:46.573Z,99200.89
2019-01-15T09:24:47.789Z,99200.89
2019-01-15T09:25:48.900Z,99202.23
2019-01-15T09:26:50.109Z,99203.26
2019-01-15T09:27:51.224Z,99203.08
2019-01-15T09:28:52.356Z,99196.88
2019-01-15T09:29:53.539Z,99195.22
2019-01-15T09:30:54.686Z,99195.22
2019-01-15T09:31:55.898Z,99193.06
2019-01-15T09:32:57.010Z,99197.58
2019-01-15T09:33:58.240Z,99190.56
2019-01-15T09:35:19.311Z,99191.91
2019-01-15T09:36:20.439Z,99190.89
2019-01-15T09:37:21.781Z,99195.92
2019-01-15T09:38:22.902Z,99190.56
2019-01-15T09:39:24.164Z,99194.58
2019-01-15T09:40:25.331Z,99196.13
2019-01-15T09:41:26.508Z,99190.25
2019-01-15T09:42:27.917Z,99187.56
2019-01-15T09:43:29.027Z,99194.27
2019-01-15T09:44:34.050Z,99187.56
2019-01-15T09:45:33.185Z,99186.76
2019-01-15T09:46:34.299Z,99183.55
2019-01-15T09:47:37.312Z,99184.89
2019-01-15T09:48:38.523Z,99183.23
2019-01-15T09:49:39.677Z,99180.06
2019-01-15T09:50:40.789Z,99183.06
2019-01-15T09:51:42.000Z,99177.70
2019-01-15T09:52:43.747Z,99179.22
2019-01-15T09:53:44.952Z,99176.36
2019-01-15T09:54:46.209Z,99176.86
2019-01-15T09:55:47.324Z,99172.34
2019-01-15T09:56:48.540Z,99175.52
2019-01-15T09:57:49.752Z,99174.49
2019-01-15T09:58:50.869Z,99176.16
2019-01-15T09:59:52.024Z,99170.48
2019-01-15T10:00:53.132Z,99173.16
2019-01-15T10:01:54.358Z,99171.50
2019-01-15T10:02:55.468Z,99169.34
2019-01-15T10:03:56.576Z,99168.81
2019-01-15T10:04:57.857Z,99164.48
2019-01-15T10:05:58.980Z,99163.98
2019-01-15T10:07:00.088Z,99166.14
2019-01-15T10:08:01.198Z,99165.82
2019-01-15T10:09:06.016Z,99167.48
2019-01-15T10:10:10.476Z,99162.13
2019-01-15T10:11:11.691Z,99164.80
2019-01-15T10:12:12.805Z,99161.81
2019-01-15T10:13:13.920Z,99163.98
2019-01-15T10:14:15.203Z,99162.97
2019-01-15T10:15:18.200Z,99159.77
2019-01-15T10:16:19.309Z,99159.45
2019-01-15T10:17:20.416Z,99152.75
2019-01-15T10:18:21.535Z,99160.78
2019-01-15T10:19:22.676Z,99158.11
2019-01-15T10:20:23.822Z,99155.42
2019-01-15T10:21:24.944Z,99149.75
2019-01-15T10:22:26.162Z,99158.11
2019-01-15T10:23:27.268Z,99162.97
2019-01-15T10:24:28.688Z,99155.95
2019-01-15T10:25:30.013Z,99153.28
2019-01-15T10:26:31.122Z,99144.72
2019-01-15T10:27:32.327Z,99140.70
2019-01-15T10:28:33.556Z,99150.59
2019-01-15T10:29:34.968Z,99143.38
2019-01-15T10:30:45.625Z,99147.07
2019-01-15T10:32:10.399Z,99142.24
2019-01-15T10:33:27.126Z,99145.23
2019-01-15T10:34:30.231Z,99149.44
2019-01-15T10:35:34.983Z,99145.10
2019-01-15T10:36:35.949Z,99139.42
2019-01-15T10:37:37.054Z,99137.27
2019-01-15T10:38:38.166Z,99135.62
2019-01-15T10:39:39.386Z,99140.13
2019-01-15T10:40:40.654Z,99132.94
2019-01-15T10:41:41.727Z,99138.47
2019-01-15T10:42:42.939Z,99139.31
2019-01-15T10:43:44.156Z,99133.11
2019-01-15T10:44:48.829Z,99129.41
2019-01-15T10:45:48.300Z,99142.48
2019-01-15T10:46:49.548Z,99125.61
2019-01-15T10:47:50.759Z,99126.42
2019-01-15T10:48:52.011Z,99118.59
2019-01-15T10:49:53.222Z,99129.80
2019-01-15T10:50:54.431Z,99122.79
2019-01-15T10:51:55.665Z,99125.47
2019-01-15T10:52:56.777Z,99122.47
2019-01-15T10:53:57.897Z,99123.49
2019-01-15T10:55:01.362Z,99120.50
2019-01-15T10:56:03.068Z,99126.35
2019-01-15T10:57:04.316Z,99128.21
2019-01-15T10:58:05.432Z,99131.39
2019-01-15T10:59:06.536Z,99132.55
2019-01-15T11:00:10.454Z,99123.36
2019-01-15T11:01:11.676Z,99123.17
2019-01-15T11:02:12.933Z,99128.01
2019-01-15T11:03:14.040Z,99124.83
2019-01-15T11:04:15.256Z,99129.88
2019-01-15T11:05:16.464Z,99123.81
2019-01-15T11:06:17.576Z,99121.31
2019-01-15T11:07:18.729Z,99119.80
2019-01-15T11:08:19.832Z,99123.81
2019-01-15T11:09:21.076Z,99114.12
2019-01-15T11:10:22.193Z,99117.12
2019-01-15T11:11:23.315Z,99116.27
2019-01-15T11:12:24.562Z,99113.91
2019-01-15T11:13:25.772Z,99120.11
2019-01-15T11:14:27.191Z,99115.59
2019-01-15T11:15:28.302Z,99121.77
2019-01-15T11:16:29.514Z,99116.41
2019-01-15T11:17:30.672Z,99134.34
2019-01-15T11:18:32.189Z,99118.07
2019-01-15T11:19:33.318Z,99122.61
2019-01-15T11:20:34.427Z,99122.41
2019-01-15T11:21:35.540Z,99125.61
2019-01-15T11:22:36.692Z,99122.72
2019-01-15T11:23:37.805Z,99124.06
2019-01-15T11:24:38.911Z,99125.72
2019-01-15T11:25:40.124Z,99127.05
2019-01-15T11:26:41.247Z,99124.37
2019-01-15T11:27:42.388Z,99128.39
2019-01-15T11:28:43.504Z,99124.69
2019-01-15T11:29:44.753Z,99131.70
2019-01-15T11:30:45.860Z,99128.01
2019-01-15T11:31:46.969Z,99127.52
2019-01-15T11:32:48.112Z,99127.83
2019-01-15T11:33:49.332Z,99132.66
2019-01-15T11:34:50.549Z,99122.79
2019-01-15T11:35:51.661Z,99128.15
2019-01-15T11:36:52.889Z,99126.80
2019-01-15T11:37:54.054Z,99126.59
2019-01-15T11:38:55.168Z,99126.59
2019-01-15T11:39:56.281Z,99129.28
2019-01-15T11:40:57.421Z,99134.14
2019-01-15T11:41:58.535Z,99122.58
2019-01-15T11:42:59.691Z,99126.59
2019-01-15T11:44:00.808Z,99119.90
2019-01-15T11:45:03.603Z,99127.44
2019-01-15T11:46:05.140Z,99126.91
2019-01-15T11:47:06.380Z,99122.89
2019-01-15T11:48:07.924Z,99122.89
2019-01-15T11:49:09.140Z,99126.91
2019-01-15T11:50:13.656Z,99124.23
2019-01-15T11:51:14.872Z,99121.06
2019-01-15T11:52:15.983Z,99124.55
2019-01-15T11:53:17.214Z,99122.89
2019-01-15T11:54:18.324Z,99121.55
2019-01-15T11:55:21.206Z,99121.06
2019-01-15T11:56:22.660Z,99111.69
2019-01-15T11:57:27.090Z,99117.05
2019-01-15T11:58:28.530Z,99113.03
2019-01-15T11:59:30.439Z,99119.72
2019-01-15T12:00:42.054Z,99117.53
2019-01-15T12:01:43.467Z,99117.53